createdAt,value
2022-11-25T00:02:02.359Z,100975.84
2022-11-25T00:04:37.091Z,100987.34
2022-11-25T00:07:07.521Z,100974.50
2022-11-25T00:09:37.261Z,100970.41
2022-11-25T00:12:06.309Z,100978.59
2022-11-25T00:14:34.284Z,100973.97
2022-11-25T00:17:02.876Z,100977.53
2022-11-25T00:19:31.206Z,100969.06
2022-11-25T00:22:00.292Z,100969.31
2022-11-25T00:24:27.545Z,100971.50
2022-11-25T00:26:55.850Z,100975.94
2022-11-25T00:29:24.323Z,100974.25
2022-11-25T00:31:52.684Z,100974.81
2022-11-25T00:34:20.812Z,100990.69
2022-11-25T00:36:49.333Z,100982.22
2022-11-25T00:39:27.149Z,100989.56
2022-11-25T00:42:14.554Z,100987.91
2022-11-25T00:47:29.591Z,100987.66
2022-11-25T00:49:57.747Z,100990.41
2022-11-25T00:52:30.919Z,100998.88
2022-11-25T00:54:59.695Z,100993.13
2022-11-25T00:57:30.386Z,100998.63
2022-11-25T00:59:59.225Z,100989.84
2022-11-25T01:02:26.580Z,100987.34
2022-11-25T01:04:56.555Z,100979.97
2022-11-25T01:07:26.801Z,100982.13
2022-11-25T01:09:57.097Z,100987.59
2022-11-25T01:12:26.326Z,100983.78
2022-11-25T01:14:56.127Z,100985.44
2022-11-25T01:17:25.762Z,100982.69
2022-11-25T01:20:00.261Z,100981.88
2022-11-25T01:22:29.889Z,100979.69
2022-11-25T01:24:59.628Z,100984.06
2022-11-25T01:27:29.473Z,100987.03
2022-11-25T01:29:59.148Z,100985.97
2022-11-25T01:32:28.972Z,100982.41
2022-11-25T01:34:58.727Z,100977.75
2022-11-25T01:37:28.441Z,100976.88
2022-11-25T01:39:58.170Z,100981.22
2022-11-25T01:42:31.214Z,100977.41
2022-11-25T01:45:28.670Z,100981.47
2022-11-25T01:48:15.880Z,100975.44
2022-11-25T01:51:25.752Z,100974.34
2022-11-25T01:54:09.283Z,100968.34
2022-11-25T04:57:15.909Z,100997.28
2022-11-25T04:59:48.641Z,100997.03
2022-11-25T05:14:54.796Z,101001.56
2022-11-25T05:20:31.709Z,101001.28
2022-11-25T05:23:01.930Z,101004.56
2022-11-25T05:25:32.125Z,101012.50
2022-11-25T05:28:03.885Z,101011.41
2022-11-25T05:30:34.150Z,101011.41
2022-11-25T05:33:04.325Z,101016.63
2022-11-25T05:35:34.372Z,101020.97
2022-11-25T05:38:04.393Z,101019.13
2022-11-25T05:40:34.489Z,101022.16
2022-11-25T05:43:04.903Z,101026.56
2022-11-25T05:45:35.079Z,101026.22
2022-11-25T05:48:11.129Z,101021.00
2022-11-25T05:50:41.256Z,101019.94
2022-11-25T05:53:11.557Z,101013.09
2022-11-25T05:55:41.577Z,101018.56
2022-11-25T05:58:11.594Z,101014.72
2022-11-25T06:00:43.991Z,101003.25
2022-11-25T06:03:14.237Z,101009.56
2022-11-25T06:05:45.603Z,101017.19
2022-11-25T06:08:15.592Z,101008.97
2022-11-25T06:10:48.579Z,101010.06
2022-11-25T06:13:20.517Z,101007.31
2022-11-25T06:15:50.588Z,101013.34
2022-11-25T06:18:20.644Z,101016.03
2022-11-25T06:20:59.076Z,101019.75
2022-11-25T06:23:29.273Z,101019.66
2022-11-25T06:26:20.028Z,101023.94
2022-11-25T06:28:55.913Z,101022.81
2022-11-25T06:31:27.271Z,101013.94
2022-11-25T06:33:57.468Z,101017.09
2022-11-25T06:36:27.581Z,101017.22
2022-11-25T06:39:11.484Z,101018.78
2022-11-25T06:41:40.505Z,101021.94
2022-11-25T06:44:08.874Z,101017.78
2022-11-25T06:46:37.362Z,101021.78
2022-11-25T06:49:05.924Z,101033.97
2022-11-25T06:51:34.109Z,101033.91
2022-11-25T06:54:02.542Z,101033.81
2022-11-25T06:56:30.983Z,101038.41
2022-11-25T06:58:59.337Z,101038.31
2022-11-25T07:01:31.023Z,101050.75
2022-11-25T07:04:17.789Z,101052.56
2022-11-25T07:06:50.696Z,101059.38
2022-11-25T07:09:22.457Z,101065.84
2022-11-25T07:11:52.487Z,101067.50
2022-11-25T07:14:22.592Z,101069.91
2022-11-25T07:16:52.632Z,101075.59
2022-11-25T07:19:22.828Z,101077.75
2022-11-25T07:21:53.033Z,101082.38
2022-11-25T07:24:35.625Z,101086.22
2022-11-25T07:27:06.988Z,101082.63
2022-11-25T07:29:57.879Z,101087.03
2022-11-25T07:32:45.317Z,101087.84
2022-11-25T07:35:15.513Z,101093.66
2022-11-25T07:37:45.802Z,101088.78
2022-11-25T07:40:15.971Z,101086.09
2022-11-25T07:42:45.998Z,101082.13
2022-11-25T07:45:16.193Z,101088.00
2022-11-25T07:47:46.255Z,101087.59
2022-11-25T07:50:16.390Z,101076.47
2022-11-25T07:52:46.401Z,101086.41
2022-11-25T07:55:16.575Z,101064.34
2022-11-25T07:57:46.654Z,101073.50
2022-11-25T08:00:17.481Z,101075.81
2022-11-25T08:02:47.517Z,101073.78
2022-11-25T08:05:17.608Z,101074.72
2022-11-25T08:07:47.644Z,101071.34
2022-11-25T08:10:16.192Z,101074.50
2022-11-25T08:12:44.440Z,101082.31
2022-11-25T08:15:12.936Z,101079.41
2022-11-25T08:17:41.308Z,101087.94
2022-11-25T08:20:10.253Z,101089.91
2022-11-25T08:22:38.129Z,101096.25
2022-11-25T08:25:07.463Z,101094.34
2022-11-25T08:27:34.992Z,101097.91
2022-11-25T08:30:04.050Z,101105.03
2022-11-25T08:32:31.827Z,101100.16
2022-11-25T08:35:00.455Z,101096.16
2022-11-25T08:37:32.082Z,101097.56
2022-11-25T08:40:00.781Z,101103.88
2022-11-25T08:42:28.585Z,101105.63
2022-11-25T08:44:57.344Z,101110.94
2022-11-25T08:47:26.115Z,101107.19
2022-11-25T08:49:55.417Z,101109.72
2022-11-25T08:52:25.640Z,101100.75
2022-11-25T08:54:55.666Z,101106.28
2022-11-25T08:57:25.672Z,101100.81
2022-11-25T08:59:55.700Z,101108.28
2022-11-25T09:02:25.910Z,101103.88
2022-11-25T09:04:55.954Z,101105.25
2022-11-25T09:07:30.528Z,101106.38
2022-11-25T09:10:00.928Z,101110.84
2022-11-25T09:12:30.950Z,101104.25
2022-11-25T09:14:59.358Z,101106.19
2022-11-25T09:17:27.761Z,101115.28
2022-11-25T09:19:56.153Z,101109.00
2022-11-25T09:22:24.920Z,101119.47
2022-11-25T09:24:52.964Z,101115.63
2022-11-25T09:27:21.389Z,101120.31
2022-11-25T09:29:49.914Z,101120.31
2022-11-25T09:32:18.257Z,101120.06
2022-11-25T09:34:46.658Z,101115.94
2022-11-25T09:37:15.572Z,101122.53
2022-11-25T09:39:43.484Z,101113.22
2022-11-25T09:42:52.407Z,101124.25
2022-11-25T09:45:57.116Z,101123.97
2022-11-25T09:49:31.999Z,101117.16
2022-11-25T09:52:48.232Z,101111.69
2022-11-25T09:55:25.798Z,101095.78
2022-11-25T09:58:49.779Z,101094.38
2022-11-25T10:01:28.659Z,101096.16
2022-11-25T10:05:01.751Z,101096.13
2022-11-25T10:07:46.783Z,101092.22
2022-11-25T10:10:53.215Z,101090.84
2022-11-25T10:14:23.368Z,101093.00
2022-11-25T10:17:04.934Z,101088.78
2022-11-25T10:20:08.028Z,101096.75
2022-11-25T10:22:50.427Z,101092.91
2022-11-25T10:25:47.173Z,101098.88
2022-11-25T10:28:17.490Z,101092.88
2022-11-25T10:31:00.681Z,101095.50
2022-11-25T10:33:54.788Z,101094.75
2022-11-25T10:36:34.816Z,101092.50
2022-11-25T10:39:24.528Z,101095.59
2022-11-25T10:42:12.107Z,101096.44
2022-11-25T10:44:42.705Z,101099.47
2022-11-25T10:48:14.120Z,101103.50
2022-11-25T10:50:59.072Z,101106.94
2022-11-25T10:53:32.014Z,101113.59
2022-11-25T10:56:17.142Z,101108.22
2022-11-25T10:58:47.243Z,101110.25
2022-11-25T11:05:31.671Z,101102.97
2022-11-25T11:08:25.055Z,101102.53
2022-11-25T11:11:23.628Z,101109.97
2022-11-25T11:14:20.932Z,101100.31
2022-11-25T11:16:57.373Z,101106.63
2022-11-25T11:19:31.967Z,101101.34
2022-11-25T11:22:18.179Z,101096.41
2022-11-25T11:24:48.252Z,101097.78
2022-11-25T11:27:25.910Z,101102.75
2022-11-25T11:30:21.327Z,101094.25
2022-11-25T11:33:25.448Z,101094.91
2022-11-25T11:36:17.785Z,101088.63
2022-11-25T11:39:01.325Z,101088.88
2022-11-25T11:42:00.920Z,101090.78
2022-11-25T11:45:23.967Z,101079.13
2022-11-25T11:48:21.042Z,101088.75
2022-11-25T11:51:36.249Z,101082.16
2022-11-25T11:54:37.053Z,101082.91
2022-11-25T11:57:44.771Z,101082.16
2022-11-25T12:00:20.353Z,101083.03
2022-11-25T12:03:13.241Z,101078.59
2022-11-25T12:05:41.643Z,101081.63
2022-11-25T12:08:59.147Z,101075.03
2022-11-25T12:11:43.155Z,101063.47
2022-11-25T12:14:48.134Z,101063.19
2022-11-25T12:17:46.786Z,101066.97
2022-11-25T12:20:41.100Z,101059.25
2022-11-25T12:24:04.720Z,101055.66
2022-11-25T12:27:23.316Z,101062.53
2022-11-25T12:30:16.402Z,101065.50
2022-11-25T12:33:28.089Z,101060.31
2022-11-25T12:36:30.659Z,101057.09
2022-11-25T12:39:20.320Z,101063.69
2022-11-25T12:42:21.093Z,101058.13
2022-11-25T12:45:20.258Z,101065.31
2022-11-25T12:47:52.070Z,101068.06
2022-11-25T12:51:20.632Z,101078.72
2022-11-25T12:54:47.431Z,101069.41
2022-11-25T12:58:01.220Z,101069.09
2022-11-25T13:01:33.024Z,101068.00
2022-11-25T13:04:28.392Z,101078.00
2022-11-25T13:07:38.324Z,101074.34
2022-11-25T13:10:46.779Z,101070.50
2022-11-25T13:13:39.094Z,101070.75
2022-11-25T13:16:12.104Z,101070.50
2022-11-25T13:18:46.639Z,101073.25
2022-11-25T13:21:19.883Z,101074.66
2022-11-25T13:23:58.887Z,101084.81
2022-11-25T13:26:28.940Z,101086.19
2022-11-25T13:29:11.963Z,101081.25
2022-11-25T13:32:34.154Z,101092.53
2022-11-25T13:35:32.159Z,101082.38
2022-11-25T13:38:27.701Z,101092.47
2022-11-25T13:41:20.975Z,101089.78
2022-11-25T13:43:54.032Z,101096.97
2022-11-25T13:46:52.388Z,101100.84
2022-11-25T13:49:55.205Z,101106.41
2022-11-25T13:52:42.565Z,101110.28
2022-11-25T13:55:18.601Z,101105.31
2022-11-25T13:58:12.143Z,101115.53
2022-11-25T14:01:30.958Z,101119.69
2022-11-25T14:04:09.425Z,101113.91
2022-11-25T14:07:17.083Z,101116.63
2022-11-25T14:10:39.262Z,101119.41
2022-11-25T14:13:47.016Z,101123.03
2022-11-25T14:17:25.491Z,101127.75
2022-11-25T14:20:46.240Z,101127.16
2022-11-25T14:23:58.058Z,101129.16
2022-11-25T14:26:49.374Z,101136.91
2022-11-25T14:29:32.080Z,101132.81
2022-11-25T14:32:23.453Z,101136.41
2022-11-25T14:35:16.231Z,101130.63
2022-11-25T14:38:19.649Z,101131.22
2022-11-25T14:41:07.215Z,101143.03
2022-11-25T14:43:52.022Z,101160.91
2022-11-25T14:46:25.654Z,101147.16
2022-11-25T14:48:59.811Z,101158.72
2022-11-25T14:51:39.193Z,101161.72
2022-11-25T14:54:10.853Z,101160.34
2022-11-25T14:56:41.954Z,101160.63
2022-11-25T14:59:12.982Z,101161.19
2022-11-25T15:01:55.640Z,101165.31
2022-11-25T15:04:26.572Z,101164.22
2022-11-25T15:07:02.360Z,101163.38
2022-11-25T15:09:42.887Z,101164.47
2022-11-25T15:12:22.469Z,101169.41
2022-11-25T15:14:57.276Z,101172.47
2022-11-25T15:17:39.356Z,101167.22
2022-11-25T15:20:19.914Z,101174.94
2022-11-25T15:22:54.011Z,101178.78
2022-11-25T15:25:24.128Z,101178.50
2022-11-25T15:27:54.064Z,101180.69
2022-11-25T15:30:29.535Z,101177.38
2022-11-25T15:33:01.386Z,101178.22
2022-11-25T15:35:31.615Z,101187.84
2022-11-25T15:38:39.023Z,101182.91
2022-11-25T15:41:37.071Z,101189.78
2022-11-25T15:44:07.720Z,101189.22
2022-11-25T15:46:38.498Z,101192.81
2022-11-25T15:49:19.543Z,101187.59
2022-11-25T15:51:55.502Z,101188.66
2022-11-25T15:54:45.707Z,101187.59
2022-11-25T15:57:36.416Z,101188.41
2022-11-25T16:00:17.672Z,101191.16
2022-11-25T16:02:45.785Z,101194.44
2022-11-25T16:05:14.181Z,101190.06
2022-11-25T16:07:51.825Z,101190.06
2022-11-25T16:10:41.809Z,101189.78
2022-11-25T16:13:24.012Z,101192.25
2022-11-25T16:16:07.353Z,101195.28
2022-11-25T16:19:12.953Z,101197.47
2022-11-25T16:22:00.297Z,101198.84
2022-11-25T16:25:00.425Z,101190.88
2022-11-25T16:27:38.964Z,101193.06
2022-11-25T16:30:20.780Z,101198.00
2022-11-25T16:32:50.835Z,101196.38
2022-11-25T16:35:22.351Z,101193.63
2022-11-25T16:37:50.126Z,101202.69
2022-11-25T16:40:20.293Z,101198.31
2022-11-25T16:42:53.443Z,101204.63
2022-11-25T16:45:29.862Z,101201.06
2022-11-25T16:47:58.745Z,101210.13
2022-11-25T16:50:28.307Z,101211.75
2022-11-25T16:52:58.182Z,101201.88
2022-11-25T16:55:28.258Z,101211.75
2022-11-25T16:57:58.620Z,101207.13
2022-11-25T17:00:26.688Z,101210.69
2022-11-25T17:02:56.727Z,101212.31
2022-11-25T17:05:26.978Z,101213.97
2022-11-25T17:07:55.206Z,101216.47
2022-11-25T17:10:27.744Z,101217.28
2022-11-25T17:12:57.235Z,101220.84
2022-11-25T17:15:38.320Z,101217.84
2022-11-25T17:18:11.065Z,101220.59
2022-11-25T17:20:39.204Z,101231.59
2022-11-25T17:23:16.161Z,101227.16
2022-11-25T17:25:50.469Z,101232.66
2022-11-25T17:28:21.902Z,101230.47
2022-11-25T17:30:52.045Z,101235.97
2022-11-25T17:33:22.403Z,101228.00
2022-11-25T17:35:52.398Z,101230.75
2022-11-25T17:38:22.606Z,101226.34
2022-11-25T17:40:50.819Z,101240.91
2022-11-25T17:43:22.006Z,101236.25
2022-11-25T17:45:50.825Z,101239.84
2022-11-25T17:48:20.569Z,101244.50
2022-11-25T17:50:50.430Z,101242.84
2022-11-25T17:53:20.043Z,101247.53
2022-11-25T17:55:51.452Z,101250.28
2022-11-25T17:58:20.721Z,101251.09
2022-11-25T18:00:50.129Z,101250.28
2022-11-25T18:03:20.018Z,101254.97
2022-11-25T18:05:49.779Z,101257.72
2022-11-25T18:08:19.493Z,101260.47
2022-11-25T18:10:49.232Z,101262.34
2022-11-25T18:13:19.086Z,101261.28
2022-11-25T18:15:49.151Z,101269.53
2022-11-25T18:18:25.702Z,101270.59
2022-11-25T18:20:55.936Z,101264.03
2022-11-25T18:23:24.180Z,101272.53
2022-11-25T18:26:01.170Z,101273.34
2022-11-25T18:28:33.170Z,101276.97
2022-11-25T18:31:06.743Z,101271.47
2022-11-25T18:33:35.013Z,101277.78
2022-11-25T18:37:05.011Z,101278.84
2022-11-25T18:39:35.058Z,101273.09
2022-11-25T18:42:27.447Z,101276.09
2022-11-25T18:44:57.497Z,101289.84
2022-11-25T18:47:26.700Z,101287.66
2022-11-25T18:49:56.796Z,101281.34
2022-11-25T18:52:26.866Z,101288.78
2022-11-25T18:54:56.784Z,101286.28
2022-11-25T18:59:00.434Z,101293.72
2022-11-25T19:01:31.382Z,101299.75
2022-11-25T19:04:01.181Z,101300.03
2022-11-25T19:06:31.778Z,101304.69
2022-11-25T19:09:03.508Z,101302.22
2022-11-25T19:11:41.726Z,101315.13
2022-11-25T19:14:42.131Z,101301.66
2022-11-25T19:17:24.432Z,101314.56
2022-11-25T19:19:54.605Z,101317.59
2022-11-25T19:22:24.993Z,101315.69
2022-11-25T19:24:56.737Z,101319.25
2022-11-25T19:27:51.140Z,101324.47
2022-11-25T19:30:28.208Z,101324.75
2022-11-25T19:33:28.444Z,101327.78
2022-11-25T19:35:59.120Z,101332.44
2022-11-25T19:38:31.064Z,101337.94
2022-11-25T19:41:01.646Z,101344.28
2022-11-25T19:43:29.170Z,101346.75
2022-11-25T19:45:58.973Z,101351.16
2022-11-25T19:48:39.052Z,101351.16
2022-11-25T19:51:10.904Z,101351.72
2022-11-25T19:53:41.047Z,101357.22
2022-11-25T19:56:23.868Z,101355.28
2022-11-25T19:58:55.317Z,101359.66
2022-11-25T20:01:46.786Z,101363.25
2022-11-25T20:04:22.355Z,101368.75
2022-11-25T21:01:31.356Z,101440.34
2022-11-25T21:04:01.445Z,101445.91
2022-11-25T21:06:40.613Z,101440.94
2022-11-25T21:09:24.940Z,101450.84
2022-11-25T21:11:54.929Z,101454.16
2022-11-25T21:14:24.976Z,101453.34
2022-11-25T21:16:55.034Z,101449.50
2022-11-25T21:19:25.125Z,101458.59
2022-11-25T21:21:55.222Z,101447.56
2022-11-25T21:24:35.018Z,101457.47
2022-11-25T21:27:15.413Z,101461.34
2022-11-25T21:29:46.439Z,101458.59
2022-11-25T21:32:27.809Z,101466.28
2022-11-25T21:34:58.240Z,101466.28
2022-11-25T21:37:38.010Z,101463.00
2022-11-25T21:40:41.058Z,101459.69
2022-11-25T21:43:28.517Z,101467.13
2022-11-25T21:46:11.055Z,101473.47
2022-11-25T21:48:41.645Z,101480.63
2022-11-25T21:51:21.782Z,101468.81
2022-11-25T21:53:54.288Z,101481.72
2022-11-25T21:56:34.047Z,101481.72
2022-11-25T21:59:14.646Z,101482.56
2022-11-25T22:01:45.587Z,101485.31
2022-11-25T22:04:20.988Z,101491.38
2022-11-25T22:06:51.571Z,101490.00
2022-11-25T22:09:20.632Z,101494.66
2022-11-25T22:11:50.700Z,101498.25
2022-11-25T22:14:34.638Z,101499.34
2022-11-25T22:17:16.868Z,101508.41
2022-11-25T22:19:47.416Z,101503.22
2022-11-25T22:22:18.987Z,101500.16
2022-11-25T22:24:49.195Z,101501.84
2022-11-25T22:27:28.602Z,101515.88
2022-11-25T22:29:58.684Z,101515.88
2022-11-25T22:32:27.117Z,101515.59
2022-11-25T22:34:55.442Z,101522.50
2022-11-25T22:37:25.140Z,101528.31
2022-11-25T22:39:52.964Z,101528.59
2022-11-25T22:42:30.992Z,101534.97
2022-11-25T22:45:07.028Z,101530.84
2022-11-25T22:47:45.247Z,101536.91
2022-11-25T22:50:24.625Z,101540.22
2022-11-25T22:52:56.873Z,101541.59
2022-11-25T22:55:32.715Z,101546.53
2022-11-25T22:58:04.707Z,101554.81
2022-11-25T23:00:46.428Z,101551.78
2022-11-25T23:03:29.692Z,101549.03
2022-11-25T23:05:57.857Z,101553.47
2022-11-25T23:08:31.894Z,101556.75
2022-11-25T23:11:03.479Z,101559.22
2022-11-25T23:13:53.030Z,101560.06
2022-11-25T23:16:29.219Z,101560.91
2022-11-25T23:18:59.450Z,101560.91
2022-11-25T23:21:42.900Z,101561.47
2022-11-25T23:24:17.792Z,101565.56
2022-11-25T23:27:40.176Z,101565.88
2022-11-25T23:30:22.100Z,101576.06
2022-11-25T23:32:54.592Z,101574.13
2022-11-25T23:35:37.835Z,101581.59
2022-11-25T23:38:21.378Z,101583.50
2022-11-25T23:40:49.185Z,101587.09
2022-11-25T23:43:19.564Z,101594.53
2022-11-25T23:45:57.060Z,101581.59
2022-11-25T23:48:32.030Z,101588.22
2022-11-25T23:51:02.366Z,101593.16
2022-11-25T23:53:41.250Z,101604.16
2022-11-25T23:56:08.623Z,101600.34
2022-11-25T23:58:36.353Z,101601.16
